Time;durP1;ratioP1;P1;durP2;ratioP2;P2;SDS_P1;SDS_P2;PMS_P1;PMS_P2;Temp;Humidity;BMP_temperature;BMP_pressure;BME280_temperature;BME280_humidity;BME280_pressure;Samples;Min_cycle;Max_cycle;Signal;HPM_P1;HPM_P2
2021/05/09 00:01:44;;;;;;;5.28;2.75;;;;;;;;;;5024065;28;20017;-75
2021/05/09 00:04:10;;;;;;;4.60;2.50;;;;;;;;;;5029596;28;20057;-75
2021/05/09 00:06:35;;;;;;;3.88;2.20;;;;;;;;;;5030886;28;20056;-75
2021/05/09 00:09:00;;;;;;;2.70;1.98;;;;;;;;;;5028146;28;20065;-74
2021/05/09 00:11:26;;;;;;;4.38;2.13;;;;;;;;;;5029099;28;20021;-74
2021/05/09 00:13:51;;;;;;;4.45;2.20;;;;;;;;;;5030542;28;20052;-74
2021/05/09 00:16:16;;;;;;;4.25;2.50;;;;;;;;;;5030885;28;20025;-74
2021/05/09 00:18:41;;;;;;;3.38;2.10;;;;;;;;;;5030265;28;20460;-74
2021/05/09 00:21:07;;;;;;;4.25;2.35;;;;;;;;;;5030086;28;20148;-74
2021/05/09 00:23:32;;;;;;;4.75;2.25;;;;;;;;;;5031566;28;22264;-74
2021/05/09 00:25:58;;;;;;;5.53;2.00;;;;;;;;;;5045916;28;20017;-74
2021/05/09 00:28:25;;;;;;;2.03;1.70;;;;;;;;;;5039250;28;20020;-74
2021/05/09 00:30:50;;;;;;;;;;;;;;;;;;5022979;28;20518;-74
2021/05/09 00:33:16;;;;;;;1.85;1.55;;;;;;;;;;5034025;28;19929;-75
2021/05/09 00:35:41;;;;;;;2.47;1.80;;;;;;;;;;5036517;28;20017;-74
2021/05/09 00:38:06;;;;;;;2.03;1.60;;;;;;;;;;5024034;28;20014;-75
2021/05/09 00:40:32;;;;;;;2.83;1.65;;;;;;;;;;5027630;28;20120;-75
2021/05/09 00:42:57;;;;;;;2.70;1.50;;;;;;;;;;5030299;28;20028;-74
2021/05/09 00:45:23;;;;;;;2.40;1.80;;;;;;;;;;5029833;28;20029;-75
2021/05/09 00:47:49;;;;;;;3.35;2.00;;;;;;;;;;5029305;28;20430;-74
2021/05/09 00:50:17;;;;;;;3.05;1.98;;;;;;;;;;5031145;28;20026;-74
2021/05/09 00:52:43;;;;;;;3.40;2.20;;;;;;;;;;5031016;28;20021;-74
2021/05/09 00:55:09;;;;;;;3.95;2.50;;;;;;;;;;5030076;28;20044;-74
2021/05/09 00:57:35;;;;;;;2.67;1.90;;;;;;;;;;5030737;28;20037;-73
2021/05/09 01:00:01;;;;;;;3.63;2.13;;;;;;;;;;5033290;28;20044;-73
2021/05/09 01:02:26;;;;;;;3.25;2.22;;;;;;;;;;5035941;28;20036;-74
2021/05/09 01:04:53;;;;;;;3.55;2.15;;;;;;;;;;5032100;28;20025;-73
2021/05/09 01:07:18;;;;;;;2.85;1.98;;;;;;;;;;5029853;28;20023;-74
2021/05/09 01:09:43;;;;;;;5.43;2.65;;;;;;;;;;5031103;28;20029;-73
2021/05/09 01:12:10;;;;;;;4.97;2.60;;;;;;;;;;5029585;28;20032;-73
2021/05/09 01:14:35;;;;;;;3.90;2.22;;;;;;;;;;5030925;28;20013;-73
2021/05/09 01:17:00;;;;;;;4.55;2.38;;;;;;;;;;5031200;28;20033;-74
2021/05/09 01:19:26;;;;;;;4.60;2.30;;;;;;;;;;5031486;28;20029;-74
2021/05/09 01:21:51;;;;;;;3.45;2.00;;;;;;;;;;5030536;28;20055;-73
2021/05/09 01:24:16;;;;;;;3.55;1.90;;;;;;;;;;5030613;28;20094;-74
2021/05/09 01:26:42;;;;;;;2.78;1.70;;;;;;;;;;5029718;28;20376;-74
2021/05/09 01:29:07;;;;;;;2.40;1.50;;;;;;;;;;5031172;28;20023;-73
2021/05/09 01:31:32;;;;;;;2.63;1.80;;;;;;;;;;5029880;28;20048;-73
2021/05/09 01:33:57;;;;;;;2.40;1.65;;;;;;;;;;5029479;28;20025;-73
2021/05/09 01:36:23;;;;;;;3.72;1.92;;;;;;;;;;5029490;28;20022;-73
2021/05/09 01:38:48;;;;;;;3.20;1.95;;;;;;;;;;5030775;28;20510;-74
2021/05/09 01:41:13;;;;;;;6.28;3.22;;;;;;;;;;5028027;28;20028;-74
2021/05/09 01:43:39;;;;;;;4.63;2.60;;;;;;;;;;5028871;28;20061;-74
2021/05/09 01:46:04;;;;;;;4.45;2.58;;;;;;;;;;5030572;28;20022;-74
2021/05/09 01:48:29;;;;;;;3.17;2.03;;;;;;;;;;5030593;28;20079;-74
2021/05/09 01:50:54;;;;;;;2.40;1.70;;;;;;;;;;5029807;28;20022;-75
2021/05/09 01:53:20;;;;;;;2.67;1.90;;;;;;;;;;5028648;28;20036;-74
2021/05/09 01:55:45;;;;;;;1.77;1.50;;;;;;;;;;5029058;28;20018;-75
2021/05/09 01:58:16;;;;;;;1.77;1.48;;;;;;;;;;5028931;28;20041;-74
2021/05/09 02:00:43;;;;;;;1.40;1.30;;;;;;;;;;5029153;28;20017;-75
2021/05/09 02:03:08;;;;;;;;;;;;;;;;;;5028988;28;20471;-75
2021/05/09 02:05:36;;;;;;;3.72;2.00;;;;;;;;;;5030830;28;19962;-74
2021/05/09 02:08:01;;;;;;;3.15;1.80;;;;;;;;;;5030668;28;20028;-74
2021/05/09 02:10:27;;;;;;;2.17;1.55;;;;;;;;;;5028856;28;20021;-75
2021/05/09 02:12:52;;;;;;;3.42;1.52;;;;;;;;;;5028610;28;20100;-74
2021/05/09 02:15:17;;;;;;;2.25;1.50;;;;;;;;;;5028996;28;20032;-74
2021/05/09 02:17:45;;;;;;;3.78;2.10;;;;;;;;;;5030610;28;20032;-74
2021/05/09 02:20:10;;;;;;;3.90;2.30;;;;;;;;;;5029058;28;20479;-74
2021/05/09 02:22:35;;;;;;;4.85;2.55;;;;;;;;;;5029033;28;20076;-74
2021/05/09 02:25:01;;;;;;;4.55;2.58;;;;;;;;;;5029406;28;20032;-74
2021/05/09 02:27:26;;;;;;;4.40;2.50;;;;;;;;;;5029097;28;20072;-75
2021/05/09 02:29:51;;;;;;;3.38;2.00;;;;;;;;;;5029000;28;20025;-74
2021/05/09 02:32:17;;;;;;;5.57;2.28;;;;;;;;;;5030471;28;20032;-74
2021/05/09 02:34:42;;;;;;;3.47;2.10;;;;;;;;;;5030788;28;20100;-74
2021/05/09 02:37:07;;;;;;;2.45;1.80;;;;;;;;;;5038236;28;20021;-74
2021/05/09 02:39:33;;;;;;;2.42;1.65;;;;;;;;;;5033153;28;20483;-74
2021/05/09 02:41:58;;;;;;;3.28;2.15;;;;;;;;;;5028855;28;20120;-74
2021/05/09 02:44:23;;;;;;;2.28;1.80;;;;;;;;;;5030296;28;20220;-74
2021/05/09 02:46:48;;;;;;;2.13;1.70;;;;;;;;;;5029126;28;20108;-74
2021/05/09 02:49:14;;;;;;;3.78;1.80;;;;;;;;;;5028767;28;20017;-74
2021/05/09 02:51:39;;;;;;;3.88;2.08;;;;;;;;;;5029037;28;20053;-74
2021/05/09 02:54:04;;;;;;;5.65;3.10;;;;;;;;;;5028069;28;20053;-74
2021/05/09 02:56:29;;;;;;;5.17;2.93;;;;;;;;;;5030270;28;20376;-74
2021/05/09 02:59:01;;;;;;;5.63;3.30;;;;;;;;;;5028414;28;20795;-74
2021/05/09 03:01:26;;;;;;;6.15;3.35;;;;;;;;;;5030021;28;20387;-74
2021/05/09 03:03:51;;;;;;;5.60;2.97;;;;;;;;;;5031109;28;20017;-74
2021/05/09 03:06:17;;;;;;;4.80;2.70;;;;;;;;;;5032245;28;20022;-74
2021/05/09 03:08:42;;;;;;;4.83;2.63;;;;;;;;;;5033231;28;20021;-74
2021/05/09 03:11:07;;;;;;;4.13;2.28;;;;;;;;;;5032174;28;20246;-74
2021/05/09 03:13:32;;;;;;;3.65;2.25;;;;;;;;;;5031886;28;20014;-74
2021/05/09 03:15:58;;;;;;;3.35;1.90;;;;;;;;;;5033453;28;20464;-74
2021/05/09 03:18:24;;;;;;;1.92;1.50;;;;;;;;;;5031766;28;20014;-73
2021/05/09 03:20:49;;;;;;;2.50;1.77;;;;;;;;;;5033519;28;20485;-74
2021/05/09 03:23:16;;;;;;;3.08;1.83;;;;;;;;;;5031754;28;20427;-74
2021/05/09 03:25:42;;;;;;;3.92;2.10;;;;;;;;;;5032099;28;20080;-73
2021/05/09 03:28:09;;;;;;;5.22;2.33;;;;;;;;;;5031556;28;20017;-74
2021/05/09 03:30:35;;;;;;;4.40;2.20;;;;;;;;;;5033171;28;20444;-73
2021/05/09 03:33:02;;;;;;;3.17;1.83;;;;;;;;;;5033221;28;20530;-73
2021/05/09 03:35:28;;;;;;;3.78;2.30;;;;;;;;;;5032176;28;20075;-74
2021/05/09 03:37:53;;;;;;;3.40;2.00;;;;;;;;;;5033056;28;20025;-74
2021/05/09 03:40:18;;;;;;;3.75;1.90;;;;;;;;;;5033116;28;20458;-74
2021/05/09 03:42:43;;;;;;;2.55;1.80;;;;;;;;;;5033263;28;20021;-74
2021/05/09 03:45:09;;;;;;;3.92;1.80;;;;;;;;;;5039389;28;20686;-74
2021/05/09 03:47:38;;;;;;;2.90;1.70;;;;;;;;;;5037246;28;20014;-74
2021/05/09 03:50:03;;;;;;;2.38;1.70;;;;;;;;;;5032742;28;20059;-74
2021/05/09 03:52:28;;;;;;;3.08;1.90;;;;;;;;;;5032507;28;20488;-74
2021/05/09 03:54:54;;;;;;;2.63;1.90;;;;;;;;;;5032669;28;20021;-74
2021/05/09 03:57:19;;;;;;;2.55;1.77;;;;;;;;;;5032763;28;20107;-74
2021/05/09 03:59:44;;;;;;;3.13;2.05;;;;;;;;;;5032000;28;20022;-74
2021/05/09 04:02:10;;;;;;;2.60;1.70;;;;;;;;;;5031811;28;20385;-74
2021/05/09 04:04:35;;;;;;;2.20;1.70;;;;;;;;;;5031187;28;20420;-74
2021/05/09 04:07:00;;;;;;;3.00;1.60;;;;;;;;;;5032998;28;20412;-74
2021/05/09 04:09:28;;;;;;;2.05;1.60;;;;;;;;;;5032909;28;20489;-74
2021/05/09 04:11:53;;;;;;;1.95;1.40;;;;;;;;;;5030726;28;20049;-74
2021/05/09 04:14:18;;;;;;;1.50;1.40;;;;;;;;;;5032135;28;20547;-74
2021/05/09 04:16:44;;;;;;;2.40;1.90;;;;;;;;;;5030531;28;20458;-73
2021/05/09 04:19:09;;;;;;;1.92;1.65;;;;;;;;;;5030558;28;20025;-74
2021/05/09 04:21:34;;;;;;;1.60;1.50;;;;;;;;;;5030096;28;20026;-74
2021/05/09 04:24:00;;;;;;;2.20;1.60;;;;;;;;;;5032371;28;20032;-74
2021/05/09 04:26:27;;;;;;;1.40;1.30;;;;;;;;;;5031726;28;20044;-74
2021/05/09 04:28:53;;;;;;;1.60;1.50;;;;;;;;;;5032893;28;20088;-74
2021/05/09 04:31:18;;;;;;;1.80;1.42;;;;;;;;;;5030792;28;20436;-74
2021/05/09 04:33:43;;;;;;;1.58;1.30;;;;;;;;;;5030307;28;20091;-74
2021/05/09 04:36:08;;;;;;;1.40;1.30;;;;;;;;;;5032494;28;20048;-74
2021/05/09 04:38:34;;;;;;;1.55;1.45;;;;;;;;;;5030879;28;20021;-74
2021/05/09 04:40:59;;;;;;;1.88;1.52;;;;;;;;;;5031346;28;20032;-74
2021/05/09 04:43:24;;;;;;;2.85;1.70;;;;;;;;;;5030323;28;20033;-74
2021/05/09 04:45:51;;;;;;;1.85;1.63;;;;;;;;;;5031431;28;20029;-73
2021/05/09 04:48:16;;;;;;;2.42;1.55;;;;;;;;;;5031832;28;20061;-74
2021/05/09 04:50:41;;;;;;;1.60;1.50;;;;;;;;;;5030229;28;20041;-74
2021/05/09 04:53:25;;;;;;;1.50;1.40;;;;;;;;;;5031187;28;20021;-75
2021/05/09 04:55:50;;;;;;;1.92;1.60;;;;;;;;;;5031568;28;20383;-75
2021/05/09 04:58:16;;;;;;;3.88;1.60;;;;;;;;;;5032169;28;20505;-75
2021/05/09 05:00:41;;;;;;;1.88;1.42;;;;;;;;;;5031341;28;20193;-75
2021/05/09 05:03:06;;;;;;;2.30;1.70;;;;;;;;;;5030229;28;20448;-75
2021/05/09 05:05:32;;;;;;;1.90;1.50;;;;;;;;;;5030617;28;20029;-75
2021/05/09 05:07:57;;;;;;;2.10;1.60;;;;;;;;;;5029061;28;20028;-74
2021/05/09 05:10:22;;;;;;;2.40;1.70;;;;;;;;;;5029567;28;20368;-73
2021/05/09 05:12:47;;;;;;;1.60;1.50;;;;;;;;;;5029245;28;20113;-75
2021/05/09 05:15:13;;;;;;;2.15;1.60;;;;;;;;;;5031187;28;20025;-75
2021/05/09 05:17:38;;;;;;;1.98;1.50;;;;;;;;;;5030940;28;20021;-75
2021/05/09 05:20:03;;;;;;;1.50;1.40;;;;;;;;;;5029866;28;20018;-74
2021/05/09 05:22:29;;;;;;;1.88;1.60;;;;;;;;;;5031069;28;20026;-75
2021/05/09 05:24:54;;;;;;;2.25;1.50;;;;;;;;;;5030319;28;20430;-74
2021/05/09 05:27:19;;;;;;;1.40;1.30;;;;;;;;;;5028806;28;20052;-74
2021/05/09 05:29:44;;;;;;;1.57;1.40;;;;;;;;;;5029283;28;20029;-74
2021/05/09 05:32:10;;;;;;;1.40;1.30;;;;;;;;;;5029830;28;20266;-74
2021/05/09 05:34:35;;;;;;;1.40;1.30;;;;;;;;;;5030119;28;20022;-74
2021/05/09 05:37:00;;;;;;;1.38;1.27;;;;;;;;;;5029406;28;20037;-74
2021/05/09 05:39:25;;;;;;;1.40;1.30;;;;;;;;;;5028929;28;20022;-74
2021/05/09 05:41:51;;;;;;;1.48;1.38;;;;;;;;;;5026515;28;20075;-74
2021/05/09 05:44:16;;;;;;;1.83;1.60;;;;;;;;;;5030786;28;20029;-74
2021/05/09 05:46:41;;;;;;;2.20;1.50;;;;;;;;;;5029683;28;20104;-74
2021/05/09 05:49:06;;;;;;;2.08;1.40;;;;;;;;;;5029067;28;20092;-74
2021/05/09 05:51:32;;;;;;;1.20;1.20;;;;;;;;;;5030517;28;20021;-74
2021/05/09 05:53:57;;;;;;;1.40;1.30;;;;;;;;;;5029897;28;20032;-74
2021/05/09 05:56:26;;;;;;;1.83;1.40;;;;;;;;;;5029465;28;20261;-75
2021/05/09 05:58:53;;;;;;;1.27;1.20;;;;;;;;;;5030002;28;20037;-74
2021/05/09 06:01:18;;;;;;;;;;;;;;;;;;5031043;28;20021;-74
2021/05/09 06:03:46;;;;;;;1.40;1.30;;;;;;;;;;5029216;28;19955;-74
2021/05/09 06:06:11;;;;;;;;;;;;;;;;;;5030401;28;20239;-74
2021/05/09 06:08:38;;;;;;;3.03;1.40;;;;;;;;;;5029543;28;19911;-74
2021/05/09 06:11:03;;;;;;;2.00;1.30;;;;;;;;;;5028977;28;20309;-75
2021/05/09 06:13:28;;;;;;;1.27;1.15;;;;;;;;;;5029956;28;20021;-74
2021/05/09 06:15:54;;;;;;;1.52;1.20;;;;;;;;;;5030322;28;20035;-74
2021/05/09 06:18:19;;;;;;;1.45;1.20;;;;;;;;;;5030373;28;20026;-74
2021/05/09 06:20:47;;;;;;;1.35;1.20;;;;;;;;;;5028601;28;20025;-74
2021/05/09 06:23:12;;;;;;;1.17;1.05;;;;;;;;;;5029979;28;20074;-74
2021/05/09 06:25:38;;;;;;;1.73;1.20;;;;;;;;;;5029042;28;20030;-74
2021/05/09 06:28:04;;;;;;;3.28;1.30;;;;;;;;;;5030777;28;20052;-74
2021/05/09 06:30:29;;;;;;;1.30;1.20;;;;;;;;;;5028918;28;20021;-74
2021/05/09 06:32:54;;;;;;;1.23;1.20;;;;;;;;;;5030574;28;20014;-74
2021/05/09 06:35:22;;;;;;;1.20;1.10;;;;;;;;;;5028944;28;20606;-74
2021/05/09 06:37:51;;;;;;;1.23;1.13;;;;;;;;;;5030525;28;20502;-76
2021/05/09 06:40:17;;;;;;;2.03;1.30;;;;;;;;;;5034332;28;20227;-74
2021/05/09 06:42:42;;;;;;;2.53;1.20;;;;;;;;;;5034166;28;20021;-75
2021/05/09 06:45:12;;;;;;;2.50;1.23;;;;;;;;;;5034242;28;20021;-75
2021/05/09 06:47:38;;;;;;;1.20;1.10;;;;;;;;;;5033979;28;20365;-75
2021/05/09 06:50:03;;;;;;;1.20;1.00;;;;;;;;;;5033696;28;20035;-75
2021/05/09 06:52:28;;;;;;;1.60;1.20;;;;;;;;;;5031690;28;20072;-75
2021/05/09 06:54:54;;;;;;;1.13;1.10;;;;;;;;;;5026609;28;20032;-75
2021/05/09 06:57:19;;;;;;;1.55;1.20;;;;;;;;;;5045722;28;20028;-75
2021/05/09 06:59:44;;;;;;;1.25;1.10;;;;;;;;;;5052040;28;20124;-75
2021/05/09 07:02:09;;;;;;;1.23;1.10;;;;;;;;;;5052044;28;20036;-75
2021/05/09 07:04:35;;;;;;;1.25;1.08;;;;;;;;;;5053012;28;20079;-75
2021/05/09 07:07:00;;;;;;;1.17;1.00;;;;;;;;;;5053793;28;20120;-75
2021/05/09 07:09:25;;;;;;;0.93;0.90;;;;;;;;;;5053898;28;20088;-75
2021/05/09 07:11:51;;;;;;;1.17;0.90;;;;;;;;;;5052541;28;20406;-75
2021/05/09 07:14:16;;;;;;;0.90;0.90;;;;;;;;;;5054187;28;20364;-75
2021/05/09 07:16:43;;;;;;;1.10;1.00;;;;;;;;;;5054156;28;20029;-75
2021/05/09 07:19:09;;;;;;;0.70;0.70;;;;;;;;;;5053982;28;20025;-75
2021/05/09 07:21:45;;;;;;;0.90;0.90;;;;;;;;;;5053893;28;20033;-75
2021/05/09 07:24:10;;;;;;;0.82;0.82;;;;;;;;;;5051897;28;20033;-77
2021/05/09 07:26:36;;;;;;;0.82;0.82;;;;;;;;;;5052405;28;20024;-75
2021/05/09 07:29:01;;;;;;;0.70;0.70;;;;;;;;;;5051743;28;20024;-75
2021/05/09 07:31:27;;;;;;;0.80;0.80;;;;;;;;;;5053908;28;20017;-75
2021/05/09 07:33:54;;;;;;;0.93;0.70;;;;;;;;;;5054149;28;20032;-75
2021/05/09 07:36:19;;;;;;;0.75;0.75;;;;;;;;;;5053907;28;20039;-75
2021/05/09 07:38:45;;;;;;;0.70;0.70;;;;;;;;;;5051984;28;20559;-75
2021/05/09 07:41:10;;;;;;;1.43;0.97;;;;;;;;;;5045112;28;20049;-75
2021/05/09 07:43:35;;;;;;;1.25;0.85;;;;;;;;;;5050065;28;20785;-75
2021/05/09 08:24:46;;;;;;;0.50;0.50;;;;;;;;;;5863412;22;20269;-73
2021/05/09 08:27:11;;;;;;;0.73;0.60;;;;;;;;;;4992790;28;20513;-74
2021/05/09 08:29:39;;;;;;;0.30;0.30;;;;;;;;;;4990201;28;20018;-75
2021/05/09 08:32:04;;;;;;;0.47;0.43;;;;;;;;;;4992651;28;20534;-73
2021/05/09 08:34:29;;;;;;;0.90;0.50;;;;;;;;;;4991035;28;20025;-73
2021/05/09 08:36:55;;;;;;;0.57;0.47;;;;;;;;;;4989436;28;20087;-76
2021/05/09 08:39:20;;;;;;;0.57;0.50;;;;;;;;;;5010190;28;20029;-74
2021/05/09 08:41:47;;;;;;;1.17;0.55;;;;;;;;;;4992599;28;20057;-74
2021/05/09 08:44:12;;;;;;;1.25;0.45;;;;;;;;;;5005929;28;20025;-74
2021/05/09 08:46:37;;;;;;;0.50;0.50;;;;;;;;;;4982522;28;20144;-75
2021/05/09 08:49:03;;;;;;;0.50;0.50;;;;;;;;;;5008079;28;20076;-75
2021/05/09 08:51:29;;;;;;;1.08;0.60;;;;;;;;;;4992555;28;20037;-74
2021/05/09 08:53:57;;;;;;;0.75;0.50;;;;;;;;;;4986309;28;20112;-74
2021/05/09 08:56:25;;;;;;;1.13;0.50;;;;;;;;;;5016207;28;20539;-76
2021/05/09 08:58:50;;;;;;;;;;;;;;;;;;4989833;28;20456;-74
2021/05/09 09:01:17;;;;;;;1.27;0.70;;;;;;;;;;5001216;28;19941;-74
2021/05/09 09:03:43;;;;;;;1.58;0.73;;;;;;;;;;4995954;28;20018;-74
2021/05/09 09:06:17;;;;;;;0.52;0.38;;;;;;;;;;4994379;28;20497;-74
2021/05/09 09:08:49;;;;;;;1.00;0.40;;;;;;;;;;5012256;28;20057;-74
2021/05/09 09:11:23;;;;;;;1.52;0.40;;;;;;;;;;5012185;28;20022;-74
2021/05/09 09:14:05;;;;;;;0.95;0.52;;;;;;;;;;5002807;28;20093;-73
2021/05/09 09:16:30;;;;;;;0.75;0.60;;;;;;;;;;5002646;28;20534;-74
2021/05/09 09:18:56;;;;;;;2.30;0.45;;;;;;;;;;5000923;28;20402;-73
2021/05/09 09:21:25;;;;;;;0.45;0.40;;;;;;;;;;4990463;28;20361;-73
2021/05/09 09:23:54;;;;;;;0.80;0.55;;;;;;;;;;4989935;28;20073;-73
2021/05/09 09:26:26;;;;;;;0.30;0.30;;;;;;;;;;5007716;28;20041;-72
2021/05/09 09:28:51;;;;;;;0.63;0.40;;;;;;;;;;5005422;28;20021;-72
2021/05/09 09:31:33;;;;;;;0.50;0.45;;;;;;;;;;5003646;28;20441;-72
2021/05/09 09:33:58;;;;;;;0.52;0.52;;;;;;;;;;4986548;28;20022;-72
2021/05/09 09:36:24;;;;;;;0.70;0.50;;;;;;;;;;4990025;28;20026;-73
2021/05/09 09:38:49;;;;;;;0.50;0.50;;;;;;;;;;4990032;28;20018;-72
2021/05/09 09:41:16;;;;;;;1.27;0.65;;;;;;;;;;5019369;28;20029;-73
2021/05/09 09:43:44;;;;;;;0.38;0.30;;;;;;;;;;5022330;28;20332;-72
2021/05/09 09:46:26;;;;;;;1.85;0.63;;;;;;;;;;4991188;28;20033;-73
2021/05/09 09:48:51;;;;;;;0.50;0.50;;;;;;;;;;5004554;28;20048;-73
2021/05/09 09:51:16;;;;;;;0.30;0.30;;;;;;;;;;5017932;28;20026;-73
2021/05/09 09:53:43;;;;;;;0.35;0.35;;;;;;;;;;5009824;28;20075;-73
2021/05/09 09:56:09;;;;;;;0.75;0.50;;;;;;;;;;4992372;28;20105;-73
2021/05/09 09:58:40;;;;;;;0.43;0.40;;;;;;;;;;4991042;28;20019;-73
2021/05/09 10:01:06;;;;;;;1.40;0.50;;;;;;;;;;4973362;28;20022;-74
2021/05/09 10:03:31;;;;;;;1.53;0.50;;;;;;;;;;5005412;28;20395;-73
2021/05/09 10:05:58;;;;;;;0.43;0.43;;;;;;;;;;4992588;28;20053;-73
2021/05/09 10:08:25;;;;;;;0.50;0.35;;;;;;;;;;4991817;28;20022;-73
2021/05/09 10:10:51;;;;;;;0.95;0.52;;;;;;;;;;5004713;28;20503;-73
2021/05/09 10:13:17;;;;;;;0.60;0.53;;;;;;;;;;4991188;28;20025;-73
2021/05/09 10:15:42;;;;;;;0.57;0.40;;;;;;;;;;4999414;28;20022;-73
2021/05/09 10:18:07;;;;;;;1.83;0.70;;;;;;;;;;4995931;28;20022;-73
2021/05/09 10:20:32;;;;;;;0.40;0.40;;;;;;;;;;5007766;28;20053;-73
2021/05/09 10:23:05;;;;;;;1.17;0.43;;;;;;;;;;5003219;28;20037;-74
2021/05/09 10:25:49;;;;;;;1.25;0.50;;;;;;;;;;4993068;28;20050;-73
2021/05/09 10:28:15;;;;;;;1.13;0.45;;;;;;;;;;4991518;28;20026;-73
2021/05/09 10:30:48;;;;;;;0.85;0.47;;;;;;;;;;5002888;28;20080;-73
2021/05/09 10:33:31;;;;;;;0.32;0.30;;;;;;;;;;4994745;28;20143;-73
2021/05/09 10:35:57;;;;;;;0.40;0.40;;;;;;;;;;5011165;28;20475;-73
2021/05/09 10:38:22;;;;;;;1.73;0.53;;;;;;;;;;5005832;28;20029;-73
2021/05/09 10:40:47;;;;;;;0.40;0.40;;;;;;;;;;5011118;28;20595;-73
2021/05/09 10:43:15;;;;;;;1.60;0.37;;;;;;;;;;4993165;28;20030;-74
2021/05/09 10:45:40;;;;;;;0.50;0.40;;;;;;;;;;4988139;28;20026;-74
2021/05/09 10:48:33;;;;;;;0.83;0.50;;;;;;;;;;5011423;28;20579;-73
2021/05/09 10:51:02;;;;;;;0.30;0.30;;;;;;;;;;4997946;28;20019;-74
2021/05/09 10:53:30;;;;;;;0.50;0.40;;;;;;;;;;4973807;28;20105;-74
2021/05/09 10:55:56;;;;;;;0.28;0.20;;;;;;;;;;4992755;28;20159;-73
2021/05/09 10:58:41;;;;;;;0.73;0.43;;;;;;;;;;4992484;28;20107;-73
2021/05/09 11:01:06;;;;;;;1.13;0.38;;;;;;;;;;4984040;28;20041;-73
2021/05/09 11:03:35;;;;;;;0.30;0.30;;;;;;;;;;4974528;28;20026;-73
2021/05/09 11:06:07;;;;;;;0.82;0.25;;;;;;;;;;4973742;28;20547;-74
2021/05/09 11:08:41;;;;;;;0.65;0.40;;;;;;;;;;4973948;28;20022;-74
2021/05/09 11:11:10;;;;;;;1.00;0.50;;;;;;;;;;4973667;28;20022;-72
2021/05/09 11:13:56;;;;;;;1.00;0.50;;;;;;;;;;5007213;28;20037;-72
2021/05/09 11:16:21;;;;;;;0.47;0.40;;;;;;;;;;4992267;28;20030;-73
2021/05/09 11:18:55;;;;;;;0.37;0.30;;;;;;;;;;4981582;28;20024;-72
2021/05/09 11:21:20;;;;;;;0.98;0.47;;;;;;;;;;5008663;28;20029;-73
2021/05/09 11:23:46;;;;;;;1.90;0.60;;;;;;;;;;4997566;28;20026;-73
2021/05/09 11:26:24;;;;;;;0.30;0.30;;;;;;;;;;4996101;28;20049;-73
2021/05/09 11:29:10;;;;;;;0.63;0.32;;;;;;;;;;4997655;28;20022;-73
2021/05/09 11:31:40;;;;;;;0.45;0.28;;;;;;;;;;5010504;28;20030;-74
2021/05/09 11:34:05;;;;;;;0.65;0.50;;;;;;;;;;4979270;28;20033;-74
2021/05/09 11:36:32;;;;;;;1.27;0.50;;;;;;;;;;4994216;28;20018;-74
2021/05/09 11:39:09;;;;;;;1.00;0.40;;;;;;;;;;5000399;28;20072;-74
2021/05/09 11:42:13;;;;;;;0.55;0.30;;;;;;;;;;4999292;28;20030;-74
2021/05/09 11:44:52;;;;;;;1.40;0.50;;;;;;;;;;4969128;28;20375;-74
2021/05/09 11:47:24;;;;;;;0.20;0.20;;;;;;;;;;4994097;28;20022;-74
2021/05/09 11:49:50;;;;;;;0.88;0.38;;;;;;;;;;4976617;28;20037;-75
2021/05/09 11:52:20;;;;;;;0.55;0.50;;;;;;;;;;4994454;28;20079;-76
2021/05/09 11:54:53;;;;;;;0.55;0.40;;;;;;;;;;5013218;28;20093;-74
2021/05/09 11:57:20;;;;;;;1.08;0.32;;;;;;;;;;5005555;28;20029;-74
2021/05/09 11:59:46;;;;;;;0.40;0.20;;;;;;;;;;5006595;28;20024;-75
2021/05/09 12:02:12;;;;;;;1.05;0.50;;;;;;;;;;5006052;28;20025;-75
2021/05/09 12:04:37;;;;;;;;;;;;;;;;;;4995936;28;20026;-74
2021/05/09 12:07:03;;;;;;;0.88;0.30;;;;;;;;;;4993939;28;19906;-74
2021/05/09 12:09:29;;;;;;;0.55;0.30;;;;;;;;;;4993652;28;20022;-74
2021/05/09 12:11:54;;;;;;;;;;;;;;;;;;4998185;28;20018;-71
2021/05/09 12:14:20;;;;;;;0.30;0.20;;;;;;;;;;4993891;28;19921;-74
2021/05/09 12:16:45;;;;;;;;;;;;;;;;;;4993997;28;20026;-72
2021/05/09 12:19:10;;;;;;;0.20;0.20;;;;;;;;;;4982196;28;19924;-72
2021/05/09 12:21:36;;;;;;;0.55;0.20;;;;;;;;;;5010140;28;20084;-72
2021/05/09 12:24:06;;;;;;;0.20;0.20;;;;;;;;;;4997473;28;20448;-72
2021/05/09 12:26:31;;;;;;;1.10;0.40;;;;;;;;;;4987007;28;20427;-72
2021/05/09 12:29:15;;;;;;;0.85;0.60;;;;;;;;;;5011533;28;20079;-74
2021/05/09 12:31:40;;;;;;;0.82;0.40;;;;;;;;;;4993387;28;20011;-72
2021/05/09 12:34:05;;;;;;;;;;;;;;;;;;4995036;28;20476;-72
2021/05/09 12:36:31;;;;;;;2.23;0.40;;;;;;;;;;5002018;28;19916;-73
2021/05/09 12:38:56;;;;;;;;;;;;;;;;;;4997628;28;20028;-74
2021/05/09 12:41:21;;;;;;;0.63;0.47;;;;;;;;;;5009260;28;19956;-72
2021/05/09 12:43:50;;;;;;;0.30;0.30;;;;;;;;;;4996880;28;20022;-73
2021/05/09 12:46:34;;;;;;;0.55;0.35;;;;;;;;;;4992914;28;20355;-72
2021/05/09 12:49:19;;;;;;;0.38;0.22;;;;;;;;;;4992973;28;20041;-74
2021/05/09 12:51:58;;;;;;;1.92;0.40;;;;;;;;;;4992834;28;20519;-72
2021/05/09 12:54:30;;;;;;;0.20;0.20;;;;;;;;;;5000345;28;20104;-74
2021/05/09 12:57:12;;;;;;;0.40;0.28;;;;;;;;;;4996526;28;20050;-72
2021/05/09 12:59:57;;;;;;;0.68;0.40;;;;;;;;;;4992584;28;20073;-72
2021/05/09 13:02:24;;;;;;;0.47;0.35;;;;;;;;;;5000616;28;20565;-72
2021/05/09 13:04:53;;;;;;;0.40;0.30;;;;;;;;;;5002927;28;20026;-72
2021/05/09 13:07:19;;;;;;;1.02;0.52;;;;;;;;;;5012704;28;20041;-72
2021/05/09 13:09:47;;;;;;;0.28;0.28;;;;;;;;;;4998134;28;20054;-73
2021/05/09 13:12:13;;;;;;;0.28;0.17;;;;;;;;;;4998148;28;20495;-73
2021/05/09 13:14:46;;;;;;;0.50;0.38;;;;;;;;;;4985487;28;20681;-73
2021/05/09 13:17:11;;;;;;;0.70;0.30;;;;;;;;;;4992799;28;20045;-73
2021/05/09 13:19:39;;;;;;;0.45;0.40;;;;;;;;;;5004192;28;20427;-73
2021/05/09 13:22:08;;;;;;;0.30;0.30;;;;;;;;;;5012902;28;20091;-73
2021/05/09 13:24:34;;;;;;;0.50;0.50;;;;;;;;;;5004662;28;20034;-74
2021/05/09 13:26:59;;;;;;;1.13;0.35;;;;;;;;;;5002539;28;20165;-74
2021/05/09 13:29:25;;;;;;;0.70;0.40;;;;;;;;;;5004161;28;20097;-73
2021/05/09 13:31:52;;;;;;;1.80;0.55;;;;;;;;;;4986671;28;20019;-73
2021/05/09 13:34:18;;;;;;;0.30;0.30;;;;;;;;;;4996612;28;20029;-73
2021/05/09 13:36:44;;;;;;;0.75;0.40;;;;;;;;;;5003822;28;20018;-73
2021/05/09 13:39:09;;;;;;;0.57;0.40;;;;;;;;;;4992370;28;20057;-74
2021/05/09 13:41:35;;;;;;;1.37;0.40;;;;;;;;;;4974491;28;20046;-73
2021/05/09 13:44:00;;;;;;;0.30;0.30;;;;;;;;;;4993356;28;20264;-74
2021/05/09 13:46:25;;;;;;;0.68;0.30;;;;;;;;;;4994190;28;20037;-73
2021/05/09 13:48:51;;;;;;;0.20;0.20;;;;;;;;;;5020416;28;20018;-73
2021/05/09 13:51:16;;;;;;;0.68;0.30;;;;;;;;;;5003418;28;20049;-73
2021/05/09 13:53:43;;;;;;;0.27;0.20;;;;;;;;;;5000128;28;20135;-73
2021/05/09 13:56:09;;;;;;;0.57;0.30;;;;;;;;;;4995774;28;20278;-73
2021/05/09 13:58:34;;;;;;;0.55;0.30;;;;;;;;;;4999934;28;20019;-76
2021/05/09 14:00:59;;;;;;;0.53;0.30;;;;;;;;;;4989153;28;21763;-74
2021/05/09 14:03:24;;;;;;;0.53;0.30;;;;;;;;;;5009236;28;20740;-74
2021/05/09 14:05:50;;;;;;;0.50;0.40;;;;;;;;;;4985596;28;21071;-73
2021/05/09 14:08:15;;;;;;;1.23;0.40;;;;;;;;;;5003093;28;20030;-74
2021/05/09 14:10:40;;;;;;;0.60;0.30;;;;;;;;;;5003129;28;20030;-74
2021/05/09 14:13:05;;;;;;;0.20;0.20;;;;;;;;;;4988198;28;20264;-74
2021/05/09 14:15:34;;;;;;;0.93;0.40;;;;;;;;;;4998175;28;20370;-74
2021/05/09 14:18:01;;;;;;;0.95;0.35;;;;;;;;;;5002111;28;20026;-74
2021/05/09 14:20:27;;;;;;;0.55;0.22;;;;;;;;;;5001440;28;20034;-74
2021/05/09 14:22:52;;;;;;;0.75;0.25;;;;;;;;;;5005692;28;20076;-72
2021/05/09 14:25:17;;;;;;;0.43;0.30;;;;;;;;;;5005443;28;20029;-73
2021/05/09 14:27:46;;;;;;;0.60;0.60;;;;;;;;;;5020850;28;20045;-73
2021/05/09 14:30:12;;;;;;;0.30;0.30;;;;;;;;;;4985066;28;20136;-72
2021/05/09 14:32:37;;;;;;;0.30;0.28;;;;;;;;;;4997700;28;20526;-73
2021/05/09 14:35:02;;;;;;;1.33;0.40;;;;;;;;;;4994614;28;20029;-73
2021/05/09 14:37:28;;;;;;;0.10;0.10;;;;;;;;;;5008767;28;20267;-72
2021/05/09 14:39:55;;;;;;;1.10;0.40;;;;;;;;;;5000085;28;20522;-72
2021/05/09 14:42:20;;;;;;;0.50;0.38;;;;;;;;;;5004760;28;20101;-73
2021/05/09 14:44:46;;;;;;;0.30;0.27;;;;;;;;;;5009777;28;20105;-73
2021/05/09 14:47:11;;;;;;;1.08;0.50;;;;;;;;;;5010316;28;20263;-72
2021/05/09 14:49:36;;;;;;;1.37;0.50;;;;;;;;;;5009517;28;20034;-72
2021/05/09 14:52:02;;;;;;;0.80;0.50;;;;;;;;;;5000060;28;20722;-74
2021/05/09 14:54:27;;;;;;;0.57;0.40;;;;;;;;;;5005268;28;20022;-75
2021/05/09 14:56:52;;;;;;;0.67;0.20;;;;;;;;;;5009468;28;20022;-72
2021/05/09 14:59:19;;;;;;;1.30;0.32;;;;;;;;;;4999683;28;20267;-72
2021/05/09 15:01:44;;;;;;;0.60;0.30;;;;;;;;;;4999296;28;20014;-72
2021/05/09 15:04:10;;;;;;;0.60;0.30;;;;;;;;;;4998897;28;20502;-75
2021/05/09 15:06:36;;;;;;;0.80;0.40;;;;;;;;;;5008710;28;20789;-75
2021/05/09 15:09:01;;;;;;;0.50;0.35;;;;;;;;;;4991604;28;20380;-72
2021/05/09 15:11:26;;;;;;;0.38;0.22;;;;;;;;;;4984486;28;20115;-72
2021/05/09 15:13:53;;;;;;;0.98;0.60;;;;;;;;;;4993495;28;20781;-74
2021/05/09 15:16:18;;;;;;;0.82;0.38;;;;;;;;;;5004426;28;20033;-74
2021/05/09 15:18:44;;;;;;;;;;;;;;;;;;4984784;28;21425;-73
2021/05/09 15:21:09;;;;;;;0.88;0.63;;;;;;;;;;5011565;28;19968;-74
2021/05/09 15:23:34;;;;;;;;;;;;;;;;;;5026135;28;20450;-73